Mesquite, Nevada Weather observations

Data are for observation ending at time listed.
 Day   Time    Ave.   Ave.  Ave.  Vector   Max.   Stn.    Total    Solar   Ave.  
  of    of     Air    Rel.  Wind   Wind    Wind   Baro.  Precip.   Rad.    Soil  
Year   Day     Temp.  Hum.  Speed  Dir.    Gust   Pres.                    Temp. 
2014   (PST)    F      %     mph   deg.    mph     mb.     in.     W/m2     F   
------------------------------------------------------------------------------
 355    5:30   40.5    86    3.5   329      5.2   955.8    0.00       0    40.5
 355    5:40   40.2    84    1.9   220      3.4   955.5    0.00       0    40.0
 355    5:50   38.3    87    2.4   154      3.4   955.7    0.00       0    38.9
 355    6:00   38.4    88    2.8   150      4.2   956.2    0.00       0    39.3
 355    6:10   38.1    89    3.6   137      4.8   956.1    0.00       0    39.1
 355    6:20   38.3    90    0.7   147      2.7   956.2    0.00       0    39.5
 355    6:30   38.2    90    3.7   106      5.6   956.2    0.00       0    39.2
 355    6:40   37.4    90    5.9    88      7.7   956.3    0.00       1    38.7
 355    6:50   37.1    91    2.6    70      4.5   956.2    0.00       2    38.6
 355    7:00   37.3    92    2.4    35      4.2   956.3    0.00       5    38.8
 355    7:10   38.3    91    2.5   299      3.9   956.4    0.00      13    39.2
 355    7:20   38.7    89    2.1   187      4.5   956.1    0.00      24    39.6
 355    7:30   38.5    89    0.7    79      2.3   956.1    0.00      38    40.4
 355    7:40   39.9    88    2.6   351      4.0   956.2    0.00      96    43.3
 355    7:50   41.2    84    2.5   340      4.2   956.3    0.00      99    44.6
 355    8:00   43.0    80    1.5   351      3.3   956.7    0.00     105    46.6
 355    8:10   43.6    78    1.4   194      3.1   956.7    0.00      78    44.4
 355    8:20   43.1    81    2.3   177      3.5   956.9    0.00     140    46.7
 355    8:30   43.2    81    2.5   152      3.8   957.0    0.00     123    46.7
 355    8:40   44.5    77    2.0   142      3.1   956.9    0.00     204    51.8
 355    8:50   46.2    73    1.3   150      2.6   956.7    0.00     199    52.2
 355    9:00   46.4    72    1.7   100      3.4   956.7    0.00     221    55.2
 355    9:10   45.8    74    2.3    74      4.2   956.7    0.00     184    54.1
 355    9:20   46.8    72    0.9     2      2.0   956.7    0.00     236    57.0
 355    9:30   47.8    69    2.1   336      4.2   956.8    0.00     234    57.5
 355    9:40   47.4    71    3.3   312      5.0   957.0    0.00     219    55.7
 355    9:50   47.5    71    3.4   296      5.1   957.2    0.00     217    55.2
 355   10:00   48.6    68    1.7   290      3.9   957.1    0.00     222    56.9
 355   10:10   49.8    65    2.0   226      3.4   956.9    0.00     252    56.8
 355   10:20   50.9    63    1.2   230      3.2   956.8    0.00     255    59.1
 355   10:30   52.0    61    0.8   126      3.5   956.4    0.00     263    61.3
 355   10:40   53.1    59    0.6   171      2.2   956.2    0.00     269    61.2
 355   10:50   52.9    59    1.5   247      4.3   956.1    0.00     271    61.0
 355   11:00   50.9    63    2.8   257      5.1   956.3    0.00     238    58.9
 355   11:10   51.4    62    2.9   250      5.0   956.5    0.00     299    60.7
 355   11:20   52.1    61    2.6   241      4.8   956.4    0.00     246    60.4
 355   11:30   53.4    58    2.2   210      4.0   956.2    0.00     298    64.0
 355   11:40   53.7    57    2.9   171      4.9   955.8    0.00     304    63.8
 355   11:50   53.6    58    3.2   176      5.8   955.6    0.00     297    63.3
 355   12:00   53.5    58    2.0   200      5.0   955.3    0.00     235    61.9
 355   12:10   53.3    58    3.3   243      6.0   955.1    0.00     231    61.1
 355   12:20   52.8    59    2.5   249      5.6   955.0    0.00     253    63.0
 355   12:30   53.1    58    3.2   255      5.8   954.8    0.00     281    63.7
 355   12:40   53.4    58    3.2   258      6.3   954.7    0.00     280    65.3
 355   12:50   54.2    57    2.2   226      5.3   954.5    0.00     249    64.6
 355   13:00   54.3    56    1.9   202      4.3   954.5    0.00     210    63.5
 355   13:10   54.7    55    1.9   208      4.4   954.5    0.00     196    62.8
 355   13:20   55.0    55    1.7   238      3.8   954.7    0.00     209    64.4
 355   13:30   54.9    55    2.3   225      4.6   954.6    0.00     193    63.3
 355   13:40   55.2    54    2.4   215      4.7   954.5    0.00     225    65.6
 355   13:50   55.9    54    2.5   206      5.5   954.4    0.00     240    67.2
 355   14:00   56.3    54    2.6   169      5.6   954.1    0.00     249    69.0
 355   14:10   56.3    54    2.5   169      5.5   954.1    0.00     224    68.2
 355   14:20   55.9    55    2.8   219      6.4   954.1    0.00     169    67.4
 355   14:30   55.3    56    3.8   248      5.9   954.2    0.00     204    67.9
 355   14:40   55.4    56    3.3   251      6.3   954.1    0.00     197    65.6
 355   14:50   55.8    56    2.1   242      5.6   954.0    0.00     183    69.7
 355   15:00   56.3    55    1.3   244      2.9   953.9    0.00     167    71.0
 355   15:10   56.4    54    1.3   192      3.9   953.7    0.00     142    70.0
 355   15:20   56.0    55    1.2   245      3.1   953.5    0.00      96    67.9
 355   15:30   55.0    57    2.0   271      4.5   953.7    0.00      55    63.2
 355   15:40   54.3    59    3.3   285      5.6   953.9    0.00      33    59.4
 355   15:50   54.2    59    2.5   274      3.9   954.0    0.00      26    58.4
 355   16:00   53.9    60    2.2   258      4.2   954.1    0.00      22    57.4
 355   16:10   53.7    60    1.0   243      2.9   954.4    0.00      14    56.9
 355   16:20   53.4    61    0.3   191      1.5   954.7    0.00       7    55.6
 355   16:30   52.6    63    2.8   120      5.2   954.6    0.00       2    54.2
 355   16:40   51.3    66    2.2   142      3.9   954.4    0.00       0    53.6
 355   16:50   51.5    66    2.4   210      4.0   954.3    0.00       0    53.5
 355   17:00   51.7    66    2.2   199      3.5   954.1    0.00       0    53.1
 355   17:10   51.5    67    2.1   228      3.5   954.0    0.00       0    52.7
 355   17:20   51.4    68    1.7   243      3.9   954.0    0.00       0    52.5
 355   17:30   51.2    68    1.4   226      3.4   953.9    0.00       0    52.3
 355   17:40   50.9    69    0.5   262      2.2   953.9    0.00       0    51.4
 355   17:50   49.6    71    1.0    91      3.9   953.8    0.00       0    50.6
 355   18:00   48.7    74    2.7    61      5.2   954.1    0.00       0    49.9
 355   18:10   47.4    77    4.4    61      5.1   954.3    0.00       0    49.1
 355   18:20   47.2    78    1.5    71      3.7   954.3    0.00       1    49.0
 355   18:30   47.4    77    2.0   112      3.2   954.4    0.00       0    48.6
 355   18:40   47.4    76    2.6   119      6.6   954.3    0.00       0    48.7
 355   18:50   46.6    78    3.8   103      6.9   954.3    0.00       0    48.2
 355   19:00   45.8    80    3.1    65      5.7   954.3    0.00       0    47.8
 355   19:10   45.9    80    2.3    25      3.5   954.4    0.00       1    48.0
 355   19:20   45.8    80    2.2    21      3.9   954.3    0.00       0    47.8
 355   19:30   46.3    80    2.8    18      3.5   954.3    0.00       0    47.8
 355   19:40   47.3    77    0.8   331      3.4   954.3    0.00       0    47.9
 355   19:50   46.1    78    3.6   114      5.8   954.2    0.00       0    46.8
 355   20:00   45.1    81    2.7    83      5.0   954.1    0.00       0    46.9
 355   20:10   45.2    82    0.5    47      1.5   954.0    0.00       0    46.7
 355   20:20   45.9    80    1.1   136      3.1   954.2    0.00       0    47.0
 355   20:30   45.7    80    2.6    59      4.5   954.5    0.00       0    46.3
 355   20:40   45.2    82    1.0    29      2.6   954.4    0.00       0    46.4
 355   20:50   45.7    81    1.3   173      3.5   954.6    0.00       0    46.3
 355   21:00   44.4    82    3.0   105      5.4   954.8    0.00       0    45.4
 355   21:10   43.3    85    3.0    79      4.2   954.9    0.00       0    45.0
 355   21:20   43.5    85    3.5    69      6.2   954.7    0.00       0    45.0
 355   21:30   43.4    86    3.6    64      4.7   954.7    0.00       0    44.8
 355   21:40   43.0    86    5.1    75      6.1   954.7    0.00       0    44.4
 355   21:50   42.6    87    5.5    67      7.1   954.9    0.00       0    44.2
 355   22:00   43.4    87    1.8   341      3.7   954.7    0.00       0    44.5
 355   22:10   44.2    84    1.0   249      3.1   954.6    0.00       0    44.8
 355   22:20   44.2    83    1.0   276      2.8   954.7    0.00       0    44.5
 355   22:30   43.8    83    0.9   107      3.2   954.6    0.00       0    44.3
 355   22:40   43.5    84    1.8   291      3.0   954.4    0.00       0    44.1
 355   22:50   44.2    83    2.5   310      3.5   954.2    0.00       0    44.5
 355   23:00   44.3    82    1.8   321      3.6   954.1    0.00       0    44.7
 355   23:10   43.3    83    3.5   125      6.5   954.0    0.00       0    43.6
 355   23:20   42.2    86    2.0    93      3.7   954.5    0.00       0    43.5
 355   23:30   42.4    87    1.3   101      2.5   954.7    0.00       0    43.7
 355   23:40   43.4    86    2.3   136      3.4   954.5    0.00       0    44.1
 355   23:50   43.1    84    2.8   128      4.5   954.6    0.00       0    43.3
 356    0:00   42.0    86    3.9   106      5.7   954.5    0.00       0    42.9
 356    0:10   41.5    88    3.5    99      4.5   954.6    0.00       0    42.7
 356    0:20   41.1    89    2.6    81      4.3   954.6    0.00       0    42.6
 356    0:30   41.3    89    1.5    29      2.6   954.5    0.00       0    42.8
 356    0:40   41.5    89    1.9   354      2.9   954.5    0.00       0    42.6
 356    0:50   42.1    88    3.3   306      5.9   954.3    0.00       0    42.8
 356    1:00   42.5    86    3.7   321      5.3   954.2    0.00       0    43.0
 356    1:10   43.2    85    2.8   307      3.9   954.0    0.00       0    43.1
 356    1:20   43.5    84    3.3   283      4.1   953.9    0.00       0    43.3
 356    1:30   43.1    84    1.3   264      2.9   953.8    0.00       0    42.6
 356    1:40   41.7    85    1.7    84      4.5   953.9    0.00       0    41.7
 356    1:50   40.4    88    2.3    95      4.8   953.9    0.00       0    41.5
 356    2:00   41.0    88    3.3   130      4.4   954.1    0.00       0    41.9
 356    2:10   41.3    88    2.7   159      3.7   954.3    0.00       0    42.0
 356    2:20   40.4    88    3.7   113      4.5   954.5    0.00       0    41.3
 356    2:30   40.1    89    1.3   105      3.0   954.6    0.00       0    41.4
 356    2:40   39.4    89    3.8    66      5.3   954.5    0.00       0    40.6
 356    2:50   39.2    90    5.0    62      6.3   954.3    0.00       0    40.5
 356    3:00   39.3    91    4.1    26      5.3   954.3    0.00       0    40.8
 356    3:10   40.0    91    3.2   339      4.4   954.3    0.00       0    41.0
 356    3:20   40.5    90    2.8   309      3.6   954.2    0.00       0    41.0
 356    3:30   41.2    88    3.2   292      6.3   954.2    0.00       0    41.4
 356    3:40   41.0    86    1.7   214      5.1   954.4    0.00       0    40.8
 356    3:50   39.4    88    4.1   131      5.5   954.4    0.00       0    39.9
 356    4:00   39.3    90    3.1   127      4.3   954.3    0.00       0    40.0
 356    4:10   39.1    90    1.8   130      3.4   954.0    0.00       0    40.0
 356    4:20   38.9    90    2.3   112      4.1   954.0    0.00       0    39.5
 356    4:30   39.2    91    0.3   354      1.2   953.9    0.00       0    40.0
 356    4:40   39.4    91    1.6   311      3.1   954.0    0.00       0    39.9
 356    4:50   39.4    90    2.1    52      5.0   954.0    0.00       1    39.9
 356    5:00   38.1    90    3.9    87      5.3   954.2    0.00       0    39.0
 356    5:10   37.5    91    3.6    92      6.8   954.2    0.00       0    38.7
 356    5:20   36.9    92    4.2    91      5.2   954.1    0.00       0    38.3

Return to Mesquite, Nevada graphs page.


Western Regional Climate Center,wrcc@dri.edu